Time;durP1;ratioP1;P1;durP2;ratioP2;P2;SDS_P1;SDS_P2;PMS_P1;PMS_P2;Temp;Humidity;BMP_temperature;BMP_pressure;BME280_temperature;BME280_humidity;BME280_pressure;Samples;Min_cycle;Max_cycle;Signal;HPM_P1;HPM_P2
2022/01/27 00:00:43;;;;;;;24.40;10.93;;;3.20;99.90;;;;;;5034513;28;20174;-82
2022/01/27 00:05:55;;;;;;;23.23;10.17;;;2.90;99.90;;;;;;5002481;28;20192;-76
2022/01/27 00:11:15;;;;;;;25.17;10.33;;;3.00;99.90;;;;;;5030939;28;20236;-77
2022/01/27 00:13:45;;;;;;;25.50;10.67;;;2.90;99.90;;;;;;5000772;28;20265;-82
2022/01/27 00:16:25;;;;;;;23.97;10.33;;;3.00;99.90;;;;;;5016701;28;20668;-81
2022/01/27 00:18:58;;;;;;;28.20;10.57;;;3.00;99.90;;;;;;5033568;28;20264;-76
2022/01/27 00:21:27;;;;;;;26.70;10.93;;;3.10;99.90;;;;;;4999437;28;20296;-76
2022/01/27 00:23:54;;;;;;;21.93;10.63;;;3.10;99.90;;;;;;5032817;28;20666;-75
2022/01/27 00:26:20;;;;;;;24.97;10.37;;;3.00;99.90;;;;;;5015998;28;20178;-77
2022/01/27 00:28:47;;;;;;;26.57;10.43;;;3.00;99.90;;;;;;5032519;28;20257;-80
2022/01/27 00:31:15;;;;;;;30.17;11.03;;;3.10;99.90;;;;;;5032740;28;20170;-76
2022/01/27 00:33:41;;;;;;;26.00;11.07;;;3.10;99.90;;;;;;5032303;28;20182;-76
2022/01/27 00:36:06;;;;;;;26.87;10.67;;;3.20;99.90;;;;;;5031680;28;20170;-77
2022/01/27 00:38:33;;;;;;;27.87;11.23;;;3.10;99.90;;;;;;5033762;28;20173;-81
2022/01/27 00:40:59;;;;;;;21.30;10.50;;;3.20;99.90;;;;;;5015679;28;20181;-82
2022/01/27 00:43:25;;;;;;;26.77;12.17;;;3.20;99.90;;;;;;5031697;28;20170;-76
2022/01/27 00:45:51;;;;;;;29.63;12.17;;;3.20;99.90;;;;;;4998991;28;20188;-76
2022/01/27 00:48:17;;;;;;;26.53;10.60;;;3.30;99.90;;;;;;5033360;28;20288;-81
2022/01/27 00:50:51;;;;;;;27.57;11.57;;;3.20;99.90;;;;;;5031446;28;20284;-75
2022/01/27 00:53:28;;;;;;;27.07;9.67;;;3.00;99.90;;;;;;5031984;28;20257;-76
2022/01/27 00:55:55;;;;;;;26.77;11.83;;;3.00;99.90;;;;;;4985360;28;20184;-76
2022/01/27 00:58:46;;;;;;;25.23;12.23;;;3.10;99.90;;;;;;5032097;28;20186;-81
2022/01/27 01:01:11;;;;;;;28.73;11.73;;;3.30;99.90;;;;;;5002989;28;20208;-75
2022/01/27 01:03:41;;;;;;;31.50;11.87;;;3.40;99.90;;;;;;5014637;28;20189;-76
2022/01/27 01:16:35;;;;;;;25.27;10.77;;;3.40;99.90;;;;;;5010765;28;20198;-81
2022/01/27 01:19:36;;;;;;;24.57;10.53;;;3.40;99.90;;;;;;5010449;28;20180;-76
2022/01/27 01:30:06;;;;;;;26.13;11.67;;;3.20;99.90;;;;;;4997635;28;20175;-76
2022/01/27 01:35:00;;;;;;;24.80;10.40;;;3.30;99.90;;;;;;5012084;28;20174;-76
2022/01/27 01:37:25;;;;;;;22.27;9.93;;;3.20;99.90;;;;;;4968256;28;20964;-75
2022/01/27 01:39:51;;;;;;;20.77;10.17;;;3.20;99.90;;;;;;5016305;28;20189;-82
2022/01/27 01:42:17;;;;;;;22.10;10.20;;;3.30;99.90;;;;;;5008822;28;20190;-74
2022/01/27 01:44:45;;;;;;;28.13;10.90;;;3.50;99.90;;;;;;5030653;28;20177;-77
2022/01/27 01:47:11;;;;;;;21.43;10.37;;;3.50;99.90;;;;;;5031208;28;20237;-83
2022/01/27 01:49:36;;;;;;;21.67;9.53;;;3.50;99.90;;;;;;4997851;28;20178;-82
2022/01/27 01:52:07;;;;;;;19.13;9.70;;;3.50;99.90;;;;;;4998238;28;20228;-83
2022/01/27 01:54:33;;;;;;;20.40;10.30;;;3.50;99.90;;;;;;5024584;28;20256;-82
2022/01/27 01:57:00;;;;;;;23.50;10.50;;;3.50;99.90;;;;;;5014289;28;20204;-82
2022/01/27 01:59:26;;;;;;;19.63;9.73;;;3.40;99.90;;;;;;5031683;28;20174;-82
2022/01/27 02:01:52;;;;;;;22.20;9.27;;;3.40;99.90;;;;;;5030742;28;20201;-76
2022/01/27 02:04:18;;;;;;;21.63;10.47;;;3.20;99.90;;;;;;5030558;28;20209;-80
2022/01/27 02:06:50;;;;;;;18.93;9.60;;;3.30;99.90;;;;;;5029947;28;20640;-76
2022/01/27 02:19:59;;;;;;;18.27;9.10;;;3.40;99.90;;;;;;5029862;28;20228;-76
2022/01/27 02:22:25;;;;;;;17.40;9.17;;;3.40;99.90;;;;;;5046357;28;20206;-82
2022/01/27 02:24:52;;;;;;;17.90;9.37;;;3.30;99.90;;;;;;5031087;28;20166;-77
2022/01/27 02:27:20;;;;;;;19.50;9.50;;;3.40;99.90;;;;;;5046395;28;20198;-81
2022/01/27 02:29:46;;;;;;;21.93;9.83;;;3.40;99.90;;;;;;5013519;28;20178;-76
2022/01/27 02:32:14;;;;;;;20.47;9.50;;;3.40;99.90;;;;;;5046555;28;20170;-83
2022/01/27 02:34:41;;;;;;;18.20;9.67;;;3.40;99.90;;;;;;5046517;28;20181;-82
2022/01/27 02:37:08;;;;;;;20.80;9.33;;;3.40;99.90;;;;;;4999303;28;20178;-80
2022/01/27 02:39:35;;;;;;;20.17;9.53;;;3.40;99.90;;;;;;5047205;28;20170;-75
2022/01/27 02:42:16;;;;;;;21.47;10.30;;;3.30;99.90;;;;;;5031001;28;20209;-75
2022/01/27 02:44:45;;;;;;;19.70;9.97;;;3.40;99.90;;;;;;5030296;28;20170;-83
2022/01/27 02:47:15;;;;;;;15.67;8.10;;;3.40;99.90;;;;;;5031824;28;20539;-83
2022/01/27 02:49:41;;;;;;;19.37;9.23;;;3.20;99.90;;;;;;5029773;28;20197;-76
2022/01/27 02:52:07;;;;;;;20.37;9.17;;;3.30;99.90;;;;;;5029802;28;20675;-84
2022/01/27 02:54:33;;;;;;;20.43;9.73;;;3.30;99.90;;;;;;5030057;28;20186;-83
2022/01/27 02:56:59;;;;;;;16.53;9.40;;;3.40;99.90;;;;;;5013434;28;20208;-82
2022/01/27 02:59:25;;;;;;;20.43;9.63;;;3.40;99.90;;;;;;5046739;28;20178;-75
2022/01/27 03:01:52;;;;;;;18.73;9.33;;;3.30;99.90;;;;;;5029399;28;20206;-77
2022/01/27 03:04:19;;;;;;;19.77;9.13;;;3.30;99.90;;;;;;5029888;28;20169;-76
2022/01/27 03:06:47;;;;;;;18.63;9.20;;;3.50;99.90;;;;;;5031040;28;20740;-82
2022/01/27 03:09:13;;;;;;;17.87;9.37;;;3.50;99.90;;;;;;5027678;28;20257;-76
2022/01/27 03:11:47;;;;;;;18.53;8.47;;;3.40;99.90;;;;;;5028799;28;20182;-76
2022/01/27 03:14:16;;;;;;;19.97;9.67;;;3.40;99.90;;;;;;5026604;28;20185;-81
2022/01/27 03:16:42;;;;;;;21.97;9.47;;;3.40;99.90;;;;;;5028222;28;20535;-80
2022/01/27 03:19:08;;;;;;;19.87;9.80;;;3.30;99.90;;;;;;4996271;28;20182;-76
2022/01/27 03:21:34;;;;;;;15.60;8.60;;;3.30;99.90;;;;;;5030470;28;20212;-76
2022/01/27 03:24:00;;;;;;;18.40;9.47;;;3.40;99.90;;;;;;5029638;28;20240;-81
2022/01/27 03:26:27;;;;;;;16.57;8.17;;;3.40;99.90;;;;;;5029994;28;20178;-78
2022/01/27 03:28:53;;;;;;;19.57;8.57;;;3.30;99.90;;;;;;5001003;28;20178;-76
2022/01/27 03:31:20;;;;;;;19.03;9.43;;;3.20;99.90;;;;;;5034347;28;20177;-76
2022/01/27 03:33:46;;;;;;;18.70;9.13;;;3.30;99.90;;;;;;5035071;28;20837;-85
2022/01/27 03:36:12;;;;;;;17.53;9.07;;;3.30;99.90;;;;;;5016608;28;20185;-83
2022/01/27 03:38:38;;;;;;;20.23;9.43;;;2.90;99.90;;;;;;5032884;28;20170;-82
2022/01/27 03:41:06;;;;;;;20.67;9.43;;;3.20;99.90;;;;;;5034359;28;20170;-82
2022/01/27 03:43:34;;;;;;;19.50;8.93;;;3.20;99.90;;;;;;5049107;28;20166;-81
2022/01/27 03:46:00;;;;;;;19.13;9.00;;;3.20;99.90;;;;;;5016922;28;20174;-82
2022/01/27 03:48:25;;;;;;;17.40;9.10;;;3.30;99.90;;;;;;5018010;28;20178;-76
2022/01/27 03:50:51;;;;;;;19.47;9.60;;;3.40;99.90;;;;;;5046029;28;20223;-79
2022/01/27 03:53:17;;;;;;;19.93;9.17;;;3.20;99.90;;;;;;5052382;28;20201;-76
2022/01/27 03:55:46;;;;;;;20.87;8.97;;;3.20;99.90;;;;;;5038417;28;20181;-83
2022/01/27 03:58:12;;;;;;;16.93;9.27;;;3.20;99.90;;;;;;5072272;28;20173;-83
2022/01/27 04:00:38;;;;;;;20.10;8.97;;;3.20;99.90;;;;;;5070529;28;20175;-83
2022/01/27 04:03:18;;;;;;;16.70;9.43;;;3.10;99.90;;;;;;5038881;28;20206;-76
2022/01/27 04:05:55;;;;;;;18.03;8.43;;;3.00;99.90;;;;;;4986012;28;20181;-82
2022/01/27 04:08:22;;;;;;;20.23;9.47;;;2.80;99.90;;;;;;5016890;28;20678;-82
2022/01/27 04:10:49;;;;;;;17.27;8.93;;;2.90;99.90;;;;;;5000691;28;20302;-82
2022/01/27 04:13:16;;;;;;;19.73;8.20;;;2.90;99.90;;;;;;5032484;28;20201;-75
2022/01/27 04:15:46;;;;;;;18.23;9.10;;;3.10;99.90;;;;;;5048946;28;20267;-76
2022/01/27 04:18:16;;;;;;;21.03;9.30;;;3.20;99.90;;;;;;5033584;28;20170;-83
2022/01/27 04:20:45;;;;;;;20.03;9.00;;;3.50;99.90;;;;;;5016395;28;20178;-76
2022/01/27 04:23:14;;;;;;;18.27;10.00;;;3.40;99.90;;;;;;5032706;28;20255;-79
2022/01/27 04:25:39;;;;;;;17.93;9.20;;;3.40;99.90;;;;;;4983537;28;20182;-77
2022/01/27 04:28:09;;;;;;;21.13;9.97;;;3.40;99.90;;;;;;5032592;28;20181;-82
2022/01/27 04:30:35;;;;;;;16.60;8.37;;;3.50;99.90;;;;;;5016416;28;20260;-75
2022/01/27 04:33:03;;;;;;;19.57;8.87;;;3.40;99.90;;;;;;5048266;28;20174;-75
2022/01/27 04:35:33;;;;;;;18.47;8.97;;;3.30;99.90;;;;;;5015448;28;20807;-75
2022/01/27 04:40:34;;;;;;;15.93;9.23;;;3.30;99.90;;;;;;5032612;28;20185;-83
2022/01/27 04:43:12;;;;;;;17.77;8.27;;;3.30;99.90;;;;;;5048791;28;20607;-76
2022/01/27 04:45:55;;;;;;;19.80;9.93;;;3.40;99.90;;;;;;5017534;28;20177;-76
2022/01/27 04:48:22;;;;;;;15.93;8.57;;;3.40;99.90;;;;;;5002872;28;20567;-84
2022/01/27 04:50:53;;;;;;;18.13;9.83;;;3.40;99.90;;;;;;5015959;28;20180;-76
2022/01/27 04:53:32;;;;;;;18.73;9.17;;;3.40;99.90;;;;;;5032616;28;20192;-82
2022/01/27 04:56:01;;;;;;;20.63;8.90;;;3.40;99.90;;;;;;5047331;28;20213;-77
2022/01/27 04:58:32;;;;;;;17.27;9.57;;;3.40;99.90;;;;;;5032926;28;20557;-77
2022/01/27 05:01:03;;;;;;;20.20;9.60;;;3.50;99.90;;;;;;5014905;28;20259;-75
2022/01/27 05:03:54;;;;;;;24.07;9.83;;;3.40;99.90;;;;;;4993715;28;20197;-83
2022/01/27 05:06:20;;;;;;;19.03;8.93;;;3.30;99.90;;;;;;5031772;28;20264;-82
2022/01/27 05:08:45;;;;;;;18.77;9.57;;;3.40;99.90;;;;;;5031311;28;20664;-76
2022/01/27 05:11:19;;;;;;;19.67;9.50;;;3.40;99.90;;;;;;5014456;28;20245;-75
2022/01/27 05:14:03;;;;;;;19.60;10.37;;;3.40;99.90;;;;;;5030762;28;20185;-77
2022/01/27 05:16:30;;;;;;;18.23;9.23;;;3.40;99.90;;;;;;5002949;28;20368;-82
2022/01/27 05:18:56;;;;;;;19.70;10.47;;;3.40;99.90;;;;;;5030267;28;20265;-83
2022/01/27 05:21:25;;;;;;;18.70;9.43;;;3.30;99.90;;;;;;5014688;28;20182;-82
2022/01/27 05:23:51;;;;;;;20.37;10.87;;;3.00;99.90;;;;;;5030901;28;20181;-75
2022/01/27 05:26:17;;;;;;;17.97;10.33;;;3.10;99.90;;;;;;5030873;28;20665;-82
2022/01/27 05:28:46;;;;;;;19.47;10.20;;;3.30;99.90;;;;;;5030919;28;20189;-83
2022/01/27 05:31:11;;;;;;;19.53;9.97;;;3.40;99.90;;;;;;5014548;28;20177;-75
2022/01/27 05:33:37;;;;;;;19.07;9.60;;;3.50;99.90;;;;;;5031248;28;20174;-82
2022/01/27 05:36:06;;;;;;;21.00;9.53;;;3.30;99.90;;;;;;5014356;28;20174;-76
2022/01/27 05:38:38;;;;;;;22.07;10.53;;;3.30;99.90;;;;;;5031004;28;20667;-83
2022/01/27 05:41:05;;;;;;;20.97;10.63;;;3.30;99.90;;;;;;5015132;28;20182;-77
2022/01/27 05:43:31;;;;;;;16.53;9.17;;;3.40;99.90;;;;;;5030468;28;20200;-82
2022/01/27 05:45:57;;;;;;;19.47;10.40;;;3.30;99.90;;;;;;5030964;28;20245;-76
2022/01/27 05:48:25;;;;;;;24.20;10.73;;;3.40;99.90;;;;;;5013962;28;20185;-84
2022/01/27 05:50:51;;;;;;;21.03;10.47;;;3.40;99.90;;;;;;5014211;28;20636;-76
2022/01/27 05:53:17;;;;;;;19.87;10.80;;;3.40;99.90;;;;;;5013609;28;20264;-76
2022/01/27 05:55:46;;;;;;;21.53;10.97;;;3.50;99.90;;;;;;5030156;28;20197;-76
2022/01/27 05:58:12;;;;;;;22.47;10.80;;;3.40;99.90;;;;;;4997672;28;20178;-75
2022/01/27 06:00:37;;;;;;;18.60;9.70;;;3.40;99.90;;;;;;5029891;28;20185;-77
2022/01/27 06:03:06;;;;;;;20.67;10.03;;;3.50;99.90;;;;;;5046605;28;20239;-86
2022/01/27 06:05:35;;;;;;;18.10;9.73;;;3.50;99.90;;;;;;5030065;28;20173;-76
2022/01/27 06:08:01;;;;;;;18.93;9.40;;;3.50;99.90;;;;;;5030375;28;20547;-78
2022/01/27 06:10:27;;;;;;;21.37;11.47;;;3.40;99.90;;;;;;5031798;28;20174;-83
2022/01/27 06:12:56;;;;;;;21.70;11.13;;;3.50;99.90;;;;;;5030330;28;20560;-77
2022/01/27 06:15:24;;;;;;;24.07;11.43;;;3.30;99.90;;;;;;5013425;28;20226;-83
2022/01/27 06:17:50;;;;;;;18.27;10.10;;;3.30;99.90;;;;;;5031284;28;20696;-82
2022/01/27 06:20:17;;;;;;;19.53;9.90;;;3.20;99.90;;;;;;4997300;28;20264;-75
2022/01/27 06:22:46;;;;;;;19.17;9.80;;;3.20;99.90;;;;;;5014062;28;20209;-82
2022/01/27 06:25:17;;;;;;;19.73;10.63;;;3.30;99.90;;;;;;5013703;28;20178;-81
2022/01/27 06:27:46;;;;;;;19.83;9.23;;;3.30;99.90;;;;;;5029755;28;20178;-83
2022/01/27 06:30:15;;;;;;;21.03;10.27;;;3.20;99.90;;;;;;4995577;28;20227;-76
2022/01/27 06:32:41;;;;;;;16.73;9.90;;;3.30;99.90;;;;;;5024686;28;20217;-83
2022/01/27 06:35:07;;;;;;;18.97;10.47;;;3.30;99.90;;;;;;5015512;28;20664;-76
2022/01/27 06:37:37;;;;;;;20.50;10.60;;;3.40;99.90;;;;;;4981273;28;20190;-80
2022/01/27 06:40:07;;;;;;;19.20;9.87;;;3.30;99.90;;;;;;5030543;28;20236;-87
2022/01/27 06:42:36;;;;;;;24.43;11.47;;;3.30;99.90;;;;;;5030174;28;20201;-78
2022/01/27 06:45:05;;;;;;;19.67;10.10;;;3.30;99.90;;;;;;5026295;28;20657;-77
2022/01/27 06:47:31;;;;;;;18.20;10.37;;;3.20;99.90;;;;;;4993961;28;20635;-77
2022/01/27 06:49:57;;;;;;;19.10;9.77;;;3.30;99.90;;;;;;5009604;28;20269;-82
2022/01/27 06:52:27;;;;;;;17.73;8.97;;;3.10;99.90;;;;;;4976789;28;20228;-76
2022/01/27 06:54:57;;;;;;;18.27;9.77;;;3.20;99.90;;;;;;5010754;28;20170;-85
2022/01/27 06:57:25;;;;;;;22.07;10.43;;;3.20;99.90;;;;;;5030273;28;20181;-83
2022/01/27 06:59:51;;;;;;;16.60;8.90;;;3.30;99.90;;;;;;5004340;28;20596;-77
2022/01/27 07:02:17;;;;;;;22.07;10.63;;;3.30;99.90;;;;;;5029527;28;20288;-76
2022/01/27 07:04:45;;;;;;;21.93;10.43;;;3.20;99.90;;;;;;5017064;28;20178;-86
2022/01/27 07:07:12;;;;;;;22.70;10.03;;;3.20;99.90;;;;;;5033820;28;20178;-78
2022/01/27 07:09:41;;;;;;;19.70;9.10;;;3.20;99.90;;;;;;5001811;28;20181;-77
2022/01/27 07:12:08;;;;;;;22.27;10.23;;;3.30;99.90;;;;;;5017113;28;20177;-82
2022/01/27 07:14:34;;;;;;;21.23;10.40;;;3.40;99.90;;;;;;4999618;28;20375;-76
2022/01/27 07:17:01;;;;;;;27.30;10.70;;;3.30;99.90;;;;;;5003647;28;20206;-78
2022/01/27 07:19:27;;;;;;;20.07;10.13;;;3.30;99.90;;;;;;5011777;28;20190;-84
2022/01/27 07:21:53;;;;;;;19.83;9.73;;;3.30;99.90;;;;;;5027619;28;20259;-78
2022/01/27 07:24:19;;;;;;;19.70;9.73;;;3.30;99.90;;;;;;4997012;28;20867;-82
2022/01/27 07:26:45;;;;;;;16.67;9.43;;;3.20;99.90;;;;;;4991266;28;20197;-78
2022/01/27 07:29:11;;;;;;;23.37;9.60;;;3.20;99.90;;;;;;5035253;28;20193;-83
2022/01/27 07:31:37;;;;;;;19.50;10.20;;;3.20;99.90;;;;;;4984556;28;20217;-81
2022/01/27 07:34:03;;;;;;;19.57;9.93;;;3.20;99.90;;;;;;5024160;28;20185;-79
2022/01/27 07:36:31;;;;;;;16.77;8.77;;;3.20;99.90;;;;;;5070857;28;20219;-84
2022/01/27 07:38:57;;;;;;;19.67;10.03;;;3.30;99.90;;;;;;5054456;28;20884;-80
2022/01/27 07:41:23;;;;;;;15.47;8.60;;;3.20;99.90;;;;;;5039229;28;20652;-82
2022/01/27 07:43:49;;;;;;;16.73;9.70;;;3.30;99.90;;;;;;5072265;28;20166;-86
2022/01/27 07:46:15;;;;;;;22.20;9.57;;;3.10;99.90;;;;;;5048233;28;20192;-86
2022/01/27 07:48:42;;;;;;;21.63;10.30;;;3.20;99.90;;;;;;5034277;28;20231;-83
2022/01/27 07:51:11;;;;;;;21.43;10.47;;;3.30;99.90;;;;;;5021487;28;20208;-84
2022/01/27 07:53:38;;;;;;;24.80;11.37;;;3.30;99.90;;;;;;5018034;28;20177;-79
2022/01/27 07:56:04;;;;;;;27.73;11.97;;;3.40;99.90;;;;;;5035436;28;20174;-79
2022/01/27 07:58:32;;;;;;;20.87;10.17;;;3.30;99.90;;;;;;5019672;28;20260;-79
2022/01/27 08:00:58;;;;;;;25.57;11.90;;;3.20;99.90;;;;;;5017949;28;20202;-83
2022/01/27 08:03:27;;;;;;;22.63;10.27;;;3.20;99.90;;;;;;5034435;28;20374;-80
2022/01/27 08:05:52;;;;;;;24.13;10.93;;;3.20;99.90;;;;;;5052324;28;20219;-85
2022/01/27 08:08:18;;;;;;;25.60;10.97;;;3.10;99.90;;;;;;5002640;28;20177;-84
2022/01/27 08:10:45;;;;;;;19.37;10.37;;;3.30;99.90;;;;;;5018119;28;20257;-80
2022/01/27 08:13:11;;;;;;;20.23;11.20;;;3.10;99.90;;;;;;5001207;28;20710;-80
2022/01/27 08:15:37;;;;;;;27.27;10.87;;;2.90;99.90;;;;;;5017112;28;20204;-79
2022/01/27 08:18:04;;;;;;;21.20;9.87;;;2.80;99.90;;;;;;5033112;28;20293;-85
2022/01/27 08:20:30;;;;;;;19.63;10.33;;;2.80;99.90;;;;;;5050280;28;20205;-80
2022/01/27 08:22:57;;;;;;;25.13;10.23;;;2.80;99.90;;;;;;5016827;28;20193;-78
2022/01/27 08:25:24;;;;;;;25.73;10.40;;;2.90;99.90;;;;;;5017509;28;20201;-85
2022/01/27 08:27:54;;;;;;;25.43;11.17;;;3.00;99.90;;;;;;5000634;28;20197;-78
2022/01/27 08:30:23;;;;;;;26.23;10.63;;;3.00;99.90;;;;;;5016493;28;20263;-83
2022/01/27 08:32:57;;;;;;;25.73;11.23;;;2.90;99.90;;;;;;5012688;28;20273;-79
2022/01/27 08:35:23;;;;;;;25.93;11.10;;;2.90;99.90;;;;;;5012040;28;20514;-79
2022/01/27 08:37:49;;;;;;;25.60;10.57;;;2.90;99.90;;;;;;5013119;28;20170;-85
2022/01/27 08:40:19;;;;;;;21.13;10.30;;;3.00;99.90;;;;;;4995643;28;20215;-85
2022/01/27 08:42:45;;;;;;;24.53;11.37;;;3.00;99.90;;;;;;4995826;28;20214;-80
2022/01/27 08:45:23;;;;;;;23.47;10.23;;;3.00;99.90;;;;;;4996237;28;20183;-80
2022/01/27 08:47:55;;;;;;;24.47;10.87;;;3.00;99.90;;;;;;5015229;28;20686;-85
2022/01/27 08:50:22;;;;;;;23.20;10.13;;;3.20;99.90;;;;;;5016749;28;20176;-79
2022/01/27 08:52:52;;;;;;;24.73;10.47;;;3.00;99.90;;;;;;5016822;28;20174;-83
2022/01/27 08:55:21;;;;;;;20.80;9.53;;;3.10;99.90;;;;;;5015824;28;20627;-79
2022/01/27 08:57:51;;;;;;;28.97;10.47;;;3.10;99.90;;;;;;5048539;28;20544;-84
2022/01/27 09:00:19;;;;;;;26.17;10.53;;;2.90;99.90;;;;;;5016630;28;20177;-83
2022/01/27 09:02:46;;;;;;;24.70;10.80;;;3.00;99.90;;;;;;5016521;28;20297;-84
2022/01/27 09:05:12;;;;;;;24.90;11.17;;;2.90;99.90;;;;;;5032983;28;20252;-80
2022/01/27 09:07:38;;;;;;;24.67;10.17;;;3.00;99.90;;;;;;5016756;28;20181;-86
2022/01/27 09:10:06;;;;;;;23.40;10.73;;;3.00;99.90;;;;;;5016553;28;20181;-84
2022/01/27 09:12:34;;;;;;;20.27;10.30;;;2.80;99.90;;;;;;5015878;28;20686;-85
2022/01/27 09:15:02;;;;;;;25.87;10.57;;;3.10;99.90;;;;;;5027817;28;20281;-80
2022/01/27 09:17:31;;;;;;;24.50;10.57;;;2.80;99.90;;;;;;5020315;28;20181;-80
2022/01/27 09:19:58;;;;;;;22.73;10.17;;;2.90;99.90;;;;;;4998727;28;20681;-86
2022/01/27 09:22:25;;;;;;;21.87;11.20;;;3.30;99.90;;;;;;4998619;28;20700;-81
2022/01/27 09:24:59;;;;;;;22.13;10.33;;;3.40;99.90;;;;;;5032040;28;20223;-84
2022/01/27 09:27:27;;;;;;;19.30;9.10;;;3.60;99.90;;;;;;5000585;28;20197;-84
2022/01/27 09:30:19;;;;;;;23.57;10.97;;;3.40;99.90;;;;;;5033239;28;20385;-82
2022/01/27 09:32:47;;;;;;;21.83;10.40;;;3.50;99.90;;;;;;5016411;28;20186;-79
2022/01/27 09:35:15;;;;;;;21.13;9.47;;;3.40;99.90;;;;;;5016905;28;20182;-84
2022/01/27 09:37:40;;;;;;;15.97;8.50;;;3.40;99.90;;;;;;4999175;28;20169;-85
2022/01/27 09:40:07;;;;;;;17.17;7.77;;;3.50;99.90;;;;;;5030954;28;20169;-80
2022/01/27 09:42:37;;;;;;;17.07;7.97;;;3.50;99.90;;;;;;4999375;28;20220;-84
2022/01/27 09:45:05;;;;;;;14.10;7.63;;;3.50;99.90;;;;;;5031663;28;20166;-83
2022/01/27 09:47:34;;;;;;;14.60;7.20;;;3.60;99.90;;;;;;5015107;28;20178;-87
2022/01/27 09:52:52;;;;;;;14.10;6.73;;;4.00;99.90;;;;;;5034803;28;20166;-81
2022/01/27 09:55:27;;;;;;;18.47;7.20;;;4.00;99.90;;;;;;5049651;28;20253;-79
2022/01/27 09:58:00;;;;;;;14.97;5.90;;;4.00;99.90;;;;;;5032441;28;20602;-86
2022/01/27 10:00:29;;;;;;;13.77;6.60;;;3.80;99.90;;;;;;5003418;28;20162;-86
2022/01/27 10:03:02;;;;;;;11.87;6.63;;;3.80;99.90;;;;;;5016531;28;20233;-85
2022/01/27 10:05:29;;;;;;;13.90;7.53;;;4.00;99.90;;;;;;5034508;28;20182;-84
2022/01/27 10:08:14;;;;;;;13.47;6.87;;;4.10;99.90;;;;;;5034065;28;20182;-80
2022/01/27 10:10:49;;;;;;;17.33;7.23;;;4.10;99.90;;;;;;4984096;28;20188;-84
2022/01/27 10:13:37;;;;;;;12.17;6.40;;;4.10;99.90;;;;;;5049638;28;20232;-83
2022/01/27 10:16:03;;;;;;;10.90;6.07;;;4.30;99.90;;;;;;5047427;28;20193;-83
2022/01/27 10:18:35;;;;;;;14.63;7.43;;;4.20;99.90;;;;;;5032846;28;20174;-79
2022/01/27 10:21:06;;;;;;;13.03;6.40;;;4.20;99.90;;;;;;5047835;28;20170;-84
2022/01/27 10:23:36;;;;;;;14.43;6.67;;;4.20;99.90;;;;;;5031421;28;20244;-85
2022/01/27 10:26:14;;;;;;;12.07;6.03;;;4.50;99.90;;;;;;5033772;28;20174;-84
2022/01/27 10:31:26;;;;;;;16.43;7.57;;;4.30;99.90;;;;;;5035691;28;20197;-80
2022/01/27 10:33:54;;;;;;;10.67;6.80;;;4.30;99.90;;;;;;5031335;28;20498;-79
2022/01/27 10:36:33;;;;;;;14.23;6.93;;;4.30;99.90;;;;;;4996781;28;20205;-79
2022/01/27 10:39:14;;;;;;;12.40;6.43;;;4.50;99.90;;;;;;5030610;28;20591;-79
2022/01/27 10:41:57;;;;;;;12.70;7.10;;;4.50;99.90;;;;;;5046268;28;20197;-87
2022/01/27 10:44:43;;;;;;;14.33;6.17;;;4.40;99.90;;;;;;5031370;28;20197;-83
2022/01/27 10:47:20;;;;;;;10.13;5.70;;;4.50;99.90;;;;;;5014508;28;20170;-81
2022/01/27 10:50:05;;;;;;;13.50;6.30;;;4.60;99.90;;;;;;5030796;28;20184;-88
2022/01/27 10:52:38;;;;;;;12.80;6.60;;;4.70;99.90;;;;;;5032537;28;20249;-79
2022/01/27 10:55:14;;;;;;;14.03;5.87;;;4.80;99.90;;;;;;4985563;28;20177;-84
2022/01/27 10:57:47;;;;;;;10.77;6.07;;;4.70;99.90;;;;;;5031165;28;20170;-81
2022/01/27 11:00:19;;;;;;;15.97;6.37;;;4.70;99.90;;;;;;5021296;28;20255;-79
2022/01/27 11:02:53;;;;;;;12.13;6.20;;;4.60;99.90;;;;;;4981744;28;20217;-80
2022/01/27 11:05:24;;;;;;;11.93;5.20;;;4.70;99.90;;;;;;5030684;28;20181;-85
2022/01/27 11:07:50;;;;;;;10.50;5.70;;;4.60;99.90;;;;;;5048336;28;20203;-81
2022/01/27 11:10:19;;;;;;;14.27;5.97;;;4.80;99.90;;;;;;5014217;28;20217;-86
2022/01/27 11:12:46;;;;;;;11.90;5.70;;;4.80;99.90;;;;;;4997998;28;20637;-79
2022/01/27 11:15:13;;;;;;;12.80;5.80;;;4.70;99.90;;;;;;5012842;28;20206;-86
2022/01/27 11:17:41;;;;;;;13.90;5.50;;;4.80;99.90;;;;;;4997204;28;20306;-80
2022/01/27 11:20:32;;;;;;;13.87;6.83;;;4.80;99.90;;;;;;4997281;28;20560;-79
2022/01/27 11:26:07;;;;;;;10.50;5.40;;;4.90;99.90;;;;;;4997176;28;20185;-86
2022/01/27 11:28:33;;;;;;;13.53;6.10;;;4.90;99.90;;;;;;5006840;28;20190;-85
2022/01/27 11:31:08;;;;;;;12.20;5.23;;;4.90;99.90;;;;;;5015438;28;20181;-85
2022/01/27 11:33:36;;;;;;;13.90;5.90;;;4.80;99.90;;;;;;5031865;28;20170;-83
2022/01/27 11:36:11;;;;;;;13.40;5.10;;;4.90;99.90;;;;;;4997459;28;20206;-79
2022/01/27 11:38:39;;;;;;;11.30;6.13;;;5.00;99.90;;;;;;5047254;28;20177;-85
2022/01/27 11:41:05;;;;;;;9.67;5.17;;;5.10;99.90;;;;;;5030235;28;20205;-80
2022/01/27 11:43:33;;;;;;;9.43;5.17;;;5.20;99.90;;;;;;5031008;28;20645;-80
2022/01/27 11:46:14;;;;;;;9.37;4.77;;;5.10;99.90;;;;;;5028973;28;20720;-85
2022/01/27 11:48:41;;;;;;;9.93;5.10;;;4.90;99.90;;;;;;5031730;28;20223;-85
2022/01/27 11:51:15;;;;;;;12.57;6.03;;;5.00;99.90;;;;;;5033777;28;20326;-79
2022/01/27 11:53:45;;;;;;;10.50;5.83;;;5.10;99.90;;;;;;5032710;28;20178;-80
2022/01/27 11:56:36;;;;;;;12.10;5.83;;;5.30;99.90;;;;;;5016545;28;20289;-86
2022/01/27 11:59:06;;;;;;;13.30;5.93;;;5.30;99.90;;;;;;5033191;28;20178;-84
2022/01/27 12:01:38;;;;;;;10.87;6.27;;;5.30;99.90;;;;;;5034465;28;20199;-85
2022/01/27 12:04:07;;;;;;;18.47;8.27;;;5.40;99.90;;;;;;5033311;28;20201;-80
2022/01/27 12:06:49;;;;;;;12.07;6.60;;;5.50;99.90;;;;;;5032752;28;20203;-79
2022/01/27 12:09:21;;;;;;;14.67;6.50;;;5.40;99.90;;;;;;5033167;28;20205;-80
2022/01/27 12:11:54;;;;;;;14.83;6.60;;;5.40;99.90;;;;;;5032971;28;20273;-84
2022/01/27 12:14:55;;;;;;;12.43;6.70;;;5.40;99.90;;;;;;5033925;28;20218;-80
2022/01/27 12:17:23;;;;;;;15.37;7.03;;;5.50;99.90;;;;;;5038056;28;20623;-87
2022/01/27 12:20:03;;;;;;;13.63;6.87;;;5.50;99.90;;;;;;5037097;28;20253;-83
2022/01/27 12:22:44;;;;;;;10.33;5.63;;;5.30;99.90;;;;;;5036134;28;20304;-78
2022/01/27 12:25:20;;;;;;;11.97;6.37;;;5.20;99.90;;;;;;5049152;28;20166;-85
2022/01/27 12:27:54;;;;;;;16.77;6.50;;;5.40;99.90;;;;;;4999813;28;20267;-86
2022/01/27 12:30:24;;;;;;;10.40;6.40;;;5.30;99.90;;;;;;5016919;28;20177;-87
2022/01/27 12:32:58;;;;;;;14.27;6.37;;;5.20;99.90;;;;;;5033570;28;20178;-85
2022/01/27 12:35:24;;;;;;;13.47;6.27;;;5.20;99.90;;;;;;4987486;28;20235;-84
2022/01/27 12:37:51;;;;;;;13.53;6.80;;;5.30;99.90;;;;;;5032424;28;20206;-80
2022/01/27 12:40:23;;;;;;;12.87;6.40;;;5.50;99.90;;;;;;4983446;28;20178;-85
2022/01/27 12:42:58;;;;;;;14.90;7.03;;;5.50;99.90;;;;;;5000059;28;20215;-84
2022/01/27 12:45:29;;;;;;;12.67;6.20;;;5.30;99.90;;;;;;5031910;28;20173;-79
2022/01/27 12:47:57;;;;;;;13.40;5.60;;;5.50;99.90;;;;;;5011781;28;20179;-79
2022/01/27 12:50:24;;;;;;;14.40;6.10;;;5.40;99.90;;;;;;5012667;28;20178;-84
2022/01/27 12:52:54;;;;;;;11.10;6.03;;;5.60;99.90;;;;;;5012926;28;20194;-84
2022/01/27 12:55:27;;;;;;;11.63;5.67;;;5.60;99.90;;;;;;4995916;28;20544;-79
2022/01/27 12:57:58;;;;;;;13.67;6.83;;;5.50;99.90;;;;;;5013583;28;20179;-80
2022/01/27 13:00:25;;;;;;;11.37;6.10;;;5.50;99.90;;;;;;5012898;28;20552;-85
2022/01/27 13:02:59;;;;;;;13.47;6.57;;;5.20;99.90;;;;;;4980551;28;20266;-87
2022/01/27 13:05:37;;;;;;;12.93;6.67;;;5.20;99.90;;;;;;4997611;28;20205;-86
2022/01/27 13:08:13;;;;;;;13.03;6.90;;;5.10;99.90;;;;;;4997885;28;20625;-80
2022/01/27 13:10:46;;;;;;;11.17;6.17;;;5.20;99.90;;;;;;5011926;28;20220;-84
2022/01/27 13:13:24;;;;;;;12.90;5.80;;;5.40;99.90;;;;;;4999697;28;20280;-80
2022/01/27 13:16:08;;;;;;;11.57;5.93;;;5.20;99.90;;;;;;4999711;28;20237;-80
2022/01/27 13:18:49;;;;;;;9.40;5.23;;;5.20;99.90;;;;;;5015051;28;20548;-85
2022/01/27 13:21:26;;;;;;;10.93;5.63;;;5.40;99.90;;;;;;5001038;28;20182;-81
2022/01/27 13:24:14;;;;;;;13.50;6.20;;;5.50;99.90;;;;;;5033446;28;20177;-86
2022/01/27 13:26:44;;;;;;;13.37;6.43;;;5.60;99.90;;;;;;5002349;28;20166;-79
2022/01/27 13:29:28;;;;;;;12.53;6.97;;;5.70;99.90;;;;;;5016394;28;20693;-79
2022/01/27 13:31:54;;;;;;;10.37;6.00;;;5.60;99.90;;;;;;5048255;28;20182;-85
2022/01/27 13:34:20;;;;;;;11.33;6.40;;;5.70;99.90;;;;;;5031573;28;20665;-79
2022/01/27 13:36:58;;;;;;;11.10;6.17;;;5.80;99.90;;;;;;4998533;28;20231;-86
2022/01/27 13:39:36;;;;;;;9.87;5.87;;;5.70;99.90;;;;;;5030870;28;20181;-78
2022/01/27 13:42:08;;;;;;;12.83;5.60;;;5.70;99.90;;;;;;5033324;28;20189;-79
2022/01/27 13:44:34;;;;;;;11.37;6.90;;;5.80;99.90;;;;;;5000839;28;20205;-85